• Join FlightAware (Why Join?)
  • Login
  • US Flag 
06:39PM EDT


 

Airport Tracker/Info


-or-


 

Live Flight TrackerFlight Track Log ✈ ASQ5861 ✈ 08-May-2013 ✈ KIAD - CYYZ

Flight Track Log - Related Links

Times and Time Zones

All times are in EDT time to prevent confusion due to time zone crossing. See the ASQ5861 flight status page for this flight to view local times or setup timezone preferences in your user account.

Time Position Orientation Groundspeed Altitude Reporting Facility
EDT Latitude Longitude Course Direction KTS MPH feet Rate Location/Type
07:34PM 38.9667 -77.5500 North 192 221 2,900  Level Potomac TRACON
07:36PM 39.0828 -77.5597 356° North 266 306 6,300 2,040 Climbing Washington Center
07:37PM 39.1642 -77.5592 360° North 266 306 8,900 1,980 Climbing Washington Center
07:38PM 39.2408 -77.5881 344° North 272 313 10,400 1,140 Climbing Washington Center
07:39PM 39.3233 -77.6439 332° Northwest 299 344 11,200 1,020 Climbing Washington Center
07:40PM 39.5261 -77.4500 North  Level FlightAware Approximate
07:40PM 39.4233 -77.6442 360° North 316 364 12,500  Level Washington Center
07:43PM 39.6339 -77.4619 34° Northeast 357 411 16,200 1,440 Climbing New York Center
07:44PM 39.7344 -77.4528 North 357 411 17,500 1,200 Climbing New York Center
07:45PM 39.8389 -77.4492 North 362 417 18,600 1,020 Climbing New York Center
07:46PM 39.9314 -77.4742 348° North 367 422 19,600 960 Climbing New York Center
07:47PM 40.0356 -77.5142 344° North 372 428 20,600 1,020 Climbing New York Center
07:48PM 40.1539 -77.5556 345° North 389 448 21,700 1,020 Climbing New York Center
07:49PM 40.2619 -77.5986 343° North 395 455 22,700 900 Climbing New York Center
07:50PM 40.3725 -77.6367 345° North 400 460 23,600 1,020 Climbing New York Center
07:51PM 40.4803 -77.6803 343° North 400 460 24,800 1,140 Climbing New York Center
07:52PM 40.5883 -77.7211 344° North 406 467 25,900 1,080 Climbing New York Center
07:54PM 40.8025 -77.8044 344° North 405 466 28,200 1,080 Climbing Cleveland Center
07:55PM 40.9100 -77.8464 344° North 400 460 29,300 900 Climbing Cleveland Center
07:56PM 41.0172 -77.8889 343° North 400 460 30,000 300 Climbing Cleveland Center
07:57PM 41.1286 -77.9283 345° North 405 466 30,000  Level Cleveland Center
07:58PM 41.2444 -77.9733 344° North 415 478 30,000  Level Cleveland Center
07:59PM 41.3750 -78.0264 343° North 436 502 30,000  Level Cleveland Center
08:00PM 41.4947 -78.0714 344° North 441 507 30,000  Level Cleveland Center
08:01PM 41.6147 -78.1194 343° North 441 507 30,000  Level Cleveland Center
08:02PM 41.7344 -78.1650 344° North 446 513 30,000  Level Cleveland Center
08:03PM 41.8542 -78.2108 344° North 446 513 30,000  Level Cleveland Center
08:04PM 41.9719 -78.2622 342° North 446 513 30,000  Level Cleveland Center
08:05PM 42.0897 -78.3083 344° North 441 507 30,000  Level Cleveland Center
08:06PM 42.2011 -78.3519 344° North 446 513 30,000 -360 Level Cleveland Center
08:07PM 42.3186 -78.4011 343° North 446 513 29,300 -900 Descending Cleveland Center
08:08PM 42.4406 -78.4478 344° North 446 513 28,300 -660 Descending Cleveland Center
08:09PM 42.5622 -78.4972 343° North 446 513 28,000 -600 Descending Cleveland Center
08:10PM 42.6797 -78.5442 344° North 441 507 27,100 -960 Descending Cleveland Center
08:11PM 42.8017 -78.5939 343° North 447 514 26,100 -1,020 Descending Cleveland Center
08:12PM 42.9194 -78.6553 339° North 447 514 25,100 -1,920 Descending Cleveland Center
08:14PM 43.0667 -78.9000 310° West 440 506 20,600 -2,340 Descending Toronto Center
08:15PM 43.1333 -79.0333 304° West 420 483 18,200 -2,220 Descending Toronto Center
08:16PM 43.2000 -79.1500 308° West 420 483 16,200 -1,800 Descending Toronto Center
08:17PM 43.2667 -79.2667 308° West 360 414 14,600 -1,620 Descending Toronto Center
08:18PM 43.3167 -79.3333 316° Northwest 300 345 13,000 -1,800 Descending Toronto Center
08:19PM 43.4000 -79.3833 336° Northwest 290 334 11,100 -1,800 Descending Toronto Center
08:20PM 43.4667 -79.4000 350° North 290 334 9,400 -1,560 Descending Toronto Center
08:21PM 43.5333 -79.4500 331° Northwest 270 311 8,000 -1,260 Descending Toronto Center
08:22PM 43.5500 -79.5333 285° West 260 299 6,900 -1,200 Descending Toronto Center
08:23PM 43.5167 -79.6333 245° Southwest 260 299 5,700 -1,260 Descending Toronto Center
08:24PM 43.4667 -79.7000 224° Southwest 240 276 4,400 -1,200 Descending Toronto Center
08:25PM 43.4667 -79.7667 270° West 220 253 3,400 -720 Descending Toronto Center
08:26PM 43.5167 -79.8000 334° Northwest 190 219 3,000 -300 Descending Toronto Center
08:27PM 43.5500 -79.7500 47° Northeast 170 196 2,900 -300 Descending Toronto Center
08:28PM 43.5833 -79.7000 47° Northeast 170 196 2,500 -720 Descending Toronto Center
08:29PM 43.6167 -79.6500 47° Northeast 160 184 1,500 -720 Descending Toronto Center
08:31PM 43.6667 -79.6167 26° Northeast 110 127 500 -540 Descending Toronto Center